sensor_id;sensor_type;location;lat;lon;timestamp;pressure;altitude;pressure_sealevel;temperature;humidity
10167;BME280;62970;53.130;8.244;2022-12-18T00:01:25;102949.63;;;-4.55;70.76
10167;BME280;62970;53.130;8.244;2022-12-18T00:03:55;102938.56;;;-4.56;70.63
10167;BME280;62970;53.130;8.244;2022-12-18T00:06:27;102929.81;;;-4.59;70.94
10167;BME280;62970;53.130;8.244;2022-12-18T00:09:03;102928.81;;;-4.62;70.75
10167;BME280;62970;53.130;8.244;2022-12-18T00:11:32;102930.25;;;-4.65;70.93
10167;BME280;62970;53.130;8.244;2022-12-18T00:14:01;102925.94;;;-4.66;70.77
10167;BME280;62970;53.130;8.244;2022-12-18T00:16:31;102924.94;;;-4.68;70.85
10167;BME280;62970;53.130;8.244;2022-12-18T00:19:04;102924.94;;;-4.68;70.88
10167;BME280;62970;53.130;8.244;2022-12-18T00:21:33;102927.38;;;-4.70;70.90
10167;BME280;62970;53.130;8.244;2022-12-18T00:24:06;102924.50;;;-4.74;70.84
10167;BME280;62970;53.130;8.244;2022-12-18T00:26:38;102919.63;;;-4.83;70.34
10167;BME280;62970;53.130;8.244;2022-12-18T00:29:13;102925.69;;;-4.92;69.72
10167;BME280;62970;53.130;8.244;2022-12-18T00:31:43;102929.00;;;-5.05;69.62
10167;BME280;62970;53.130;8.244;2022-12-18T00:34:13;102929.75;;;-5.18;69.18
10167;BME280;62970;53.130;8.244;2022-12-18T00:36:43;102929.63;;;-5.31;69.12
10167;BME280;62970;53.130;8.244;2022-12-18T00:39:15;102930.34;;;-5.44;69.26
10167;BME280;62970;53.130;8.244;2022-12-18T00:41:44;102926.88;;;-5.56;69.35
10167;BME280;62970;53.130;8.244;2022-12-18T00:44:26;102922.50;;;-5.69;68.82
10167;BME280;62970;53.130;8.244;2022-12-18T00:46:55;102924.34;;;-5.78;68.93
10167;BME280;62970;53.130;8.244;2022-12-18T00:49:24;102920.97;;;-5.88;68.94
10167;BME280;62970;53.130;8.244;2022-12-18T00:51:55;102914.31;;;-5.98;68.86
10167;BME280;62970;53.130;8.244;2022-12-18T00:54:27;102917.91;;;-6.06;68.81
10167;BME280;62970;53.130;8.244;2022-12-18T00:56:56;102923.41;;;-6.12;69.41
10167;BME280;62970;53.130;8.244;2022-12-18T00:59:26;102941.47;;;-6.19;69.21
10167;BME280;62970;53.130;8.244;2022-12-18T01:04:33;102944.44;;;-6.35;69.01
10167;BME280;62970;53.130;8.244;2022-12-18T01:12:01;102946.53;;;-6.51;69.03
10167;BME280;62970;53.130;8.244;2022-12-18T01:14:30;102946.06;;;-6.57;69.03
10167;BME280;62970;53.130;8.244;2022-12-18T01:16:59;102947.22;;;-6.64;68.54
10167;BME280;62970;53.130;8.244;2022-12-18T01:19:29;102945.84;;;-6.70;68.89
10167;BME280;62970;53.130;8.244;2022-12-18T01:22:01;102949.53;;;-6.77;68.51
10167;BME280;62970;53.130;8.244;2022-12-18T01:24:31;102953.34;;;-6.82;68.87
10167;BME280;62970;53.130;8.244;2022-12-18T01:34:47;102963.28;;;-7.05;68.56
10167;BME280;62970;53.130;8.244;2022-12-18T01:37:16;102964.78;;;-7.07;68.65
10167;BME280;62970;53.130;8.244;2022-12-18T01:39:45;102973.78;;;-7.11;68.22
10167;BME280;62970;53.130;8.244;2022-12-18T01:42:18;102970.88;;;-7.15;68.62
10167;BME280;62970;53.130;8.244;2022-12-18T01:45:01;102976.47;;;-7.19;68.39
10167;BME280;62970;53.130;8.244;2022-12-18T01:47:35;102971.00;;;-7.24;68.50
10167;BME280;62970;53.130;8.244;2022-12-18T01:50:13;102974.06;;;-7.28;68.45
10167;BME280;62970;53.130;8.244;2022-12-18T01:52:46;102979.63;;;-7.32;68.10
10167;BME280;62970;53.130;8.244;2022-12-18T01:55:19;102986.97;;;-7.35;68.40
10167;BME280;62970;53.130;8.244;2022-12-18T01:57:50;102992.56;;;-7.39;67.94
10167;BME280;62970;53.130;8.244;2022-12-18T02:00:22;102983.66;;;-7.44;68.33
10167;BME280;62970;53.130;8.244;2022-12-18T02:02:53;102989.38;;;-7.47;68.01
10167;BME280;62970;53.130;8.244;2022-12-18T02:05:36;102989.88;;;-7.51;68.07
10167;BME280;62970;53.130;8.244;2022-12-18T02:08:12;102991.38;;;-7.53;67.87
10167;BME280;62970;53.130;8.244;2022-12-18T02:10:54;102981.63;;;-7.59;67.66
10167;BME280;62970;53.130;8.244;2022-12-18T02:13:32;102983.00;;;-7.62;68.08
10167;BME280;62970;53.130;8.244;2022-12-18T02:18:47;102981.59;;;-7.69;67.56
10167;BME280;62970;53.130;8.244;2022-12-18T02:21:31;102982.22;;;-7.71;67.85
10167;BME280;62970;53.130;8.244;2022-12-18T02:24:17;102981.97;;;-7.74;67.53
10167;BME280;62970;53.130;8.244;2022-12-18T02:27:03;102978.16;;;-7.79;67.50
10167;BME280;62970;53.130;8.244;2022-12-18T02:29:37;102975.34;;;-7.82;67.52
10167;BME280;62970;53.130;8.244;2022-12-18T02:37:10;102968.00;;;-7.90;67.13
10167;BME280;62970;53.130;8.244;2022-12-18T02:39:43;102968.63;;;-7.92;67.48
10167;BME280;62970;53.130;8.244;2022-12-18T02:42:18;102967.59;;;-7.94;67.14
10167;BME280;62970;53.130;8.244;2022-12-18T02:44:50;102966.44;;;-7.98;67.45
10167;BME280;62970;53.130;8.244;2022-12-18T02:47:28;102958.72;;;-7.99;67.07
10167;BME280;62970;53.130;8.244;2022-12-18T02:52:36;102965.94;;;-8.04;67.31
10167;BME280;62970;53.130;8.244;2022-12-18T02:55:24;102963.00;;;-8.08;67.23
10167;BME280;62970;53.130;8.244;2022-12-18T02:58:06;102978.06;;;-8.10;66.83
10167;BME280;62970;53.130;8.244;2022-12-18T03:00:43;102969.44;;;-8.12;67.03
10167;BME280;62970;53.130;8.244;2022-12-18T03:03:22;102967.53;;;-8.14;67.03
10167;BME280;62970;53.130;8.244;2022-12-18T03:05:57;102958.91;;;-8.16;66.85
10167;BME280;62970;53.130;8.244;2022-12-18T03:08:33;102963.84;;;-8.18;66.88
10167;BME280;62970;53.130;8.244;2022-12-18T03:11:08;102950.16;;;-8.20;67.08
10167;BME280;62970;53.130;8.244;2022-12-18T03:13:45;102939.88;;;-8.22;67.21
10167;BME280;62970;53.130;8.244;2022-12-18T03:16:22;102941.50;;;-8.22;67.14
10167;BME280;62970;53.130;8.244;2022-12-18T03:18:57;102937.84;;;-8.26;67.04
10167;BME280;62970;53.130;8.244;2022-12-18T03:21:35;102941.75;;;-8.29;66.83
10167;BME280;62970;53.130;8.244;2022-12-18T03:24:07;102944.13;;;-8.31;66.52
10167;BME280;62970;53.130;8.244;2022-12-18T03:26:40;102953.38;;;-8.31;66.66
10167;BME280;62970;53.130;8.244;2022-12-18T03:29:16;102954.13;;;-8.32;66.97
10167;BME280;62970;53.130;8.244;2022-12-18T03:31:53;102939.69;;;-8.33;66.98
10167;BME280;62970;53.130;8.244;2022-12-18T03:34:29;102958.16;;;-8.34;66.71
10167;BME280;62970;53.130;8.244;2022-12-18T03:36:59;102958.94;;;-8.35;66.96
10167;BME280;62970;53.130;8.244;2022-12-18T03:39:30;102971.44;;;-8.37;66.88
10167;BME280;62970;53.130;8.244;2022-12-18T03:42:07;102970.44;;;-8.39;66.61
10167;BME280;62970;53.130;8.244;2022-12-18T03:44:48;102962.56;;;-8.42;66.40
10167;BME280;62970;53.130;8.244;2022-12-18T03:47:27;102960.03;;;-8.42;66.97
10167;BME280;62970;53.130;8.244;2022-12-18T03:50:02;102959.16;;;-8.42;66.49
10167;BME280;62970;53.130;8.244;2022-12-18T03:52:37;102967.34;;;-8.45;66.67
10167;BME280;62970;53.130;8.244;2022-12-18T03:55:10;102965.59;;;-8.46;66.69
10167;BME280;62970;53.130;8.244;2022-12-18T03:57:41;102954.31;;;-8.50;66.51
10167;BME280;62970;53.130;8.244;2022-12-18T04:00:17;102952.41;;;-8.52;66.60
10167;BME280;62970;53.130;8.244;2022-12-18T04:02:51;102959.09;;;-8.53;66.46
10167;BME280;62970;53.130;8.244;2022-12-18T04:05:25;102952.13;;;-8.55;66.51
10167;BME280;62970;53.130;8.244;2022-12-18T04:07:56;102959.72;;;-8.55;66.85
10167;BME280;62970;53.130;8.244;2022-12-18T04:10:27;102960.47;;;-8.56;66.60
10167;BME280;62970;53.130;8.244;2022-12-18T04:12:57;102964.50;;;-8.58;66.69
10167;BME280;62970;53.130;8.244;2022-12-18T04:15:29;102971.97;;;-8.60;66.31
10167;BME280;62970;53.130;8.244;2022-12-18T04:18:01;102970.94;;;-8.62;66.42
10167;BME280;62970;53.130;8.244;2022-12-18T04:20:30;102956.38;;;-8.64;66.52
10167;BME280;62970;53.130;8.244;2022-12-18T04:23:00;102957.00;;;-8.67;66.33
10167;BME280;62970;53.130;8.244;2022-12-18T04:25:29;102947.50;;;-8.69;66.60
10167;BME280;62970;53.130;8.244;2022-12-18T04:27:59;102954.94;;;-8.71;66.46
10167;BME280;62970;53.130;8.244;2022-12-18T04:30:31;102958.97;;;-8.73;66.43
10167;BME280;62970;53.130;8.244;2022-12-18T04:33:01;102960.50;;;-8.75;66.17
10167;BME280;62970;53.130;8.244;2022-12-18T04:35:30;102962.13;;;-8.75;66.28
10167;BME280;62970;53.130;8.244;2022-12-18T04:38:00;102964.66;;;-8.75;66.60
10167;BME280;62970;53.130;8.244;2022-12-18T04:40:29;102975.53;;;-8.76;66.25
10167;BME280;62970;53.130;8.244;2022-12-18T04:42:59;102973.75;;;-8.77;66.49
10167;BME280;62970;53.130;8.244;2022-12-18T04:45:31;102977.91;;;-8.78;66.32
10167;BME280;62970;53.130;8.244;2022-12-18T04:48:01;102972.88;;;-8.78;66.45
10167;BME280;62970;53.130;8.244;2022-12-18T04:50:32;102965.13;;;-8.79;66.31
10167;BME280;62970;53.130;8.244;2022-12-18T04:53:02;102965.13;;;-8.79;66.27
10167;BME280;62970;53.130;8.244;2022-12-18T04:55:31;102963.38;;;-8.80;66.48
10167;BME280;62970;53.130;8.244;2022-12-18T04:58:00;102971.69;;;-8.82;66.67
10167;BME280;62970;53.130;8.244;2022-12-18T05:00:33;102976.63;;;-8.83;66.27
10167;BME280;62970;53.130;8.244;2022-12-18T05:03:02;102966.38;;;-8.85;66.15
10167;BME280;62970;53.130;8.244;2022-12-18T05:05:34;102969.66;;;-8.86;66.33
10167;BME280;62970;53.130;8.244;2022-12-18T05:08:04;102977.25;;;-8.86;66.60
10167;BME280;62970;53.130;8.244;2022-12-18T05:10:33;102980.66;;;-8.85;66.32
10167;BME280;62970;53.130;8.244;2022-12-18T05:13:02;102993.31;;;-8.85;66.58
10167;BME280;62970;53.130;8.244;2022-12-18T05:15:35;103001.66;;;-8.86;66.47
10167;BME280;62970;53.130;8.244;2022-12-18T05:18:05;103001.41;;;-8.89;66.62
10167;BME280;62970;53.130;8.244;2022-12-18T05:20:34;102996.22;;;-8.91;66.60
10167;BME280;62970;53.130;8.244;2022-12-18T05:23:04;102988.47;;;-8.92;66.20
10167;BME280;62970;53.130;8.244;2022-12-18T05:25:33;102983.41;;;-8.92;66.55
10167;BME280;62970;53.130;8.244;2022-12-18T05:28:03;102983.41;;;-8.92;66.34
10167;BME280;62970;53.130;8.244;2022-12-18T05:30:35;102982.53;;;-8.93;66.55
10167;BME280;62970;53.130;8.244;2022-12-18T05:33:04;102994.44;;;-8.92;66.53
10167;BME280;62970;53.130;8.244;2022-12-18T05:35:34;102988.47;;;-8.92;66.40
10167;BME280;62970;53.130;8.244;2022-12-18T05:38:03;102992.66;;;-8.93;66.24
10167;BME280;62970;53.130;8.244;2022-12-18T05:40:33;102997.56;;;-8.94;66.49
10167;BME280;62970;53.130;8.244;2022-12-18T05:43:02;102985.69;;;-8.95;66.75
10167;BME280;62970;53.130;8.244;2022-12-18T05:45:37;102987.31;;;-8.96;66.57
10167;BME280;62970;53.130;8.244;2022-12-18T05:48:08;102980.47;;;-8.97;66.38
10167;BME280;62970;53.130;8.244;2022-12-18T05:50:40;102999.06;;;-8.96;66.71
10167;BME280;62970;53.130;8.244;2022-12-18T05:53:12;102983.91;;;-8.96;66.39
10167;BME280;62970;53.130;8.244;2022-12-18T05:55:43;102992.22;;;-8.97;66.53
10167;BME280;62970;53.130;8.244;2022-12-18T05:58:14;102987.19;;;-8.97;66.50
10167;BME280;62970;53.130;8.244;2022-12-18T06:00:46;102996.41;;;-8.98;66.75
10167;BME280;62970;53.130;8.244;2022-12-18T06:03:15;102995.50;;;-8.98;66.33
10167;BME280;62970;53.130;8.244;2022-12-18T06:05:46;102988.69;;;-8.99;66.64
10167;BME280;62970;53.130;8.244;2022-12-18T06:08:15;102995.38;;;-9.00;66.70
10167;BME280;62970;53.130;8.244;2022-12-18T06:10:50;102996.13;;;-9.01;66.66
10167;BME280;62970;53.130;8.244;2022-12-18T06:13:21;103003.72;;;-9.01;66.74
10167;BME280;62970;53.130;8.244;2022-12-18T06:15:53;103004.47;;;-9.02;66.47
10167;BME280;62970;53.130;8.244;2022-12-18T06:18:22;103003.56;;;-9.02;66.28
10167;BME280;62970;53.130;8.244;2022-12-18T06:20:55;103000.91;;;-9.04;66.45
10167;BME280;62970;53.130;8.244;2022-12-18T06:23:25;103005.06;;;-9.04;66.69
10167;BME280;62970;53.130;8.244;2022-12-18T06:25:55;103008.34;;;-9.05;66.73
10167;BME280;62970;53.130;8.244;2022-12-18T06:28:24;103010.00;;;-9.06;66.41
10167;BME280;62970;53.130;8.244;2022-12-18T06:30:56;103008.97;;;-9.08;66.99
10167;BME280;62970;53.130;8.244;2022-12-18T06:33:27;103010.59;;;-9.08;66.49
10167;BME280;62970;53.130;8.244;2022-12-18T06:36:00;103005.41;;;-9.10;66.83
10167;BME280;62970;53.130;8.244;2022-12-18T06:38:31;103004.53;;;-9.10;66.58
10167;BME280;62970;53.130;8.244;2022-12-18T06:41:00;103002.75;;;-9.11;66.73
10167;BME280;62970;53.130;8.244;2022-12-18T06:43:29;103002.59;;;-9.13;66.25
10167;BME280;62970;53.130;8.244;2022-12-18T06:46:04;103010.94;;;-9.14;66.79
10167;BME280;62970;53.130;8.244;2022-12-18T06:48:34;103018.53;;;-9.14;66.73
10167;BME280;62970;53.130;8.244;2022-12-18T06:51:04;103014.22;;;-9.15;66.48
10167;BME280;62970;53.130;8.244;2022-12-18T06:53:33;103016.88;;;-9.13;66.66
10167;BME280;62970;53.130;8.244;2022-12-18T06:56:04;103026.09;;;-9.14;66.40
10167;BME280;62970;53.130;8.244;2022-12-18T06:58:34;103019.41;;;-9.13;66.85
10167;BME280;62970;53.130;8.244;2022-12-18T07:01:09;103024.31;;;-9.15;66.47
10167;BME280;62970;53.130;8.244;2022-12-18T07:03:39;103027.75;;;-9.14;66.87
10167;BME280;62970;53.130;8.244;2022-12-18T07:06:14;103025.06;;;-9.16;66.52
10167;BME280;62970;53.130;8.244;2022-12-18T07:08:44;103029.25;;;-9.17;66.55
10167;BME280;62970;53.130;8.244;2022-12-18T07:11:14;103015.56;;;-9.19;66.27
10167;BME280;62970;53.130;8.244;2022-12-18T07:13:46;103023.03;;;-9.20;66.79
10167;BME280;62970;53.130;8.244;2022-12-18T07:16:20;103022.13;;;-9.21;66.74
10167;BME280;62970;53.130;8.244;2022-12-18T07:18:49;103021.38;;;-9.20;66.68
10167;BME280;62970;53.130;8.244;2022-12-18T07:21:19;103015.44;;;-9.20;66.84
10167;BME280;62970;53.130;8.244;2022-12-18T07:23:49;103009.63;;;-9.19;66.80
10167;BME280;62970;53.130;8.244;2022-12-18T07:26:20;103015.56;;;-9.19;66.65
10167;BME280;62970;53.130;8.244;2022-12-18T07:28:53;103019.00;;;-9.18;66.31
10167;BME280;62970;53.130;8.244;2022-12-18T07:31:27;103014.81;;;-9.18;66.69
10167;BME280;62970;53.130;8.244;2022-12-18T07:34:03;103019.88;;;-9.18;66.92
10167;BME280;62970;53.130;8.244;2022-12-18T07:36:32;103018.53;;;-9.14;67.04
10167;BME280;62970;53.130;8.244;2022-12-18T07:39:01;103020.44;;;-9.11;66.96
10167;BME280;62970;53.130;8.244;2022-12-18T07:44:00;103003.03;;;-9.08;67.25
10167;BME280;62970;53.130;8.244;2022-12-18T07:46:33;103008.22;;;-9.07;67.28
10167;BME280;62970;53.130;8.244;2022-12-18T07:49:02;103002.41;;;-9.06;67.24
10167;BME280;62970;53.130;8.244;2022-12-18T07:51:32;102999.88;;;-9.06;67.04
10167;BME280;62970;53.130;8.244;2022-12-18T07:54:01;102998.38;;;-9.04;67.36
10167;BME280;62970;53.130;8.244;2022-12-18T07:56:31;103005.22;;;-9.03;67.07
10167;BME280;62970;53.130;8.244;2022-12-18T07:59:00;103002.81;;;-9.01;67.49
10167;BME280;62970;53.130;8.244;2022-12-18T08:01:32;103006.38;;;-8.99;67.42
10167;BME280;62970;53.130;8.244;2022-12-18T08:04:01;102998.19;;;-8.97;67.56
10167;BME280;62970;53.130;8.244;2022-12-18T08:06:31;102997.44;;;-8.96;67.35
10167;BME280;62970;53.130;8.244;2022-12-18T08:09:03;102992.50;;;-8.94;67.26
10167;BME280;62970;53.130;8.244;2022-12-18T08:11:34;102991.75;;;-8.93;67.46
10167;BME280;62970;53.130;8.244;2022-12-18T08:14:03;102997.84;;;-8.91;67.24
10167;BME280;62970;53.130;8.244;2022-12-18T08:16:37;102996.44;;;-8.88;67.78
10167;BME280;62970;53.130;8.244;2022-12-18T08:19:07;103001.91;;;-8.83;67.88
10167;BME280;62970;53.130;8.244;2022-12-18T08:21:36;102998.03;;;-8.79;68.06
10167;BME280;62970;53.130;8.244;2022-12-18T08:24:09;102998.28;;;-8.76;68.20
10167;BME280;62970;53.130;8.244;2022-12-18T08:26:39;102992.13;;;-8.70;68.40
10167;BME280;62970;53.130;8.244;2022-12-18T08:29:09;102998.50;;;-8.65;68.63
10167;BME280;62970;53.130;8.244;2022-12-18T08:31:41;102991.44;;;-8.59;68.56
10167;BME280;62970;53.130;8.244;2022-12-18T08:34:10;102984.66;;;-8.50;68.88
10167;BME280;62970;53.130;8.244;2022-12-18T08:36:39;102981.03;;;-8.43;68.49
10167;BME280;62970;53.130;8.244;2022-12-18T08:39:08;102978.41;;;-8.34;68.81
10167;BME280;62970;53.130;8.244;2022-12-18T08:41:38;102988.34;;;-8.27;68.84
10167;BME280;62970;53.130;8.244;2022-12-18T08:44:07;102987.22;;;-8.21;69.33
10167;BME280;62970;53.130;8.244;2022-12-18T08:46:52;102980.31;;;-8.13;69.30
10167;BME280;62970;53.130;8.244;2022-12-18T08:49:22;102986.06;;;-8.05;69.28
10167;BME280;62970;53.130;8.244;2022-12-18T08:51:54;102990.00;;;-7.99;69.59
10167;BME280;62970;53.130;8.244;2022-12-18T08:54:24;102987.25;;;-7.92;69.83
10167;BME280;62970;53.130;8.244;2022-12-18T08:56:53;102992.06;;;-7.84;69.40
10167;BME280;62970;53.130;8.244;2022-12-18T08:59:23;102982.47;;;-7.78;69.51
10167;BME280;62970;53.130;8.244;2022-12-18T09:01:55;103000.59;;;-7.74;69.86
10167;BME280;62970;53.130;8.244;2022-12-18T09:04:26;103009.59;;;-7.67;69.75
10167;BME280;62970;53.130;8.244;2022-12-18T09:06:56;103020.13;;;-7.63;69.82
10167;BME280;62970;53.130;8.244;2022-12-18T09:09:25;103019.91;;;-7.56;69.86
10167;BME280;62970;53.130;8.244;2022-12-18T09:11:54;103034.88;;;-7.48;69.91
10167;BME280;62970;53.130;8.244;2022-12-18T09:14:24;103028.66;;;-7.42;70.11
10167;BME280;62970;53.130;8.244;2022-12-18T09:16:57;103026.03;;;-7.33;70.00
10167;BME280;62970;53.130;8.244;2022-12-18T09:19:26;103019.06;;;-7.26;70.54
10167;BME280;62970;53.130;8.244;2022-12-18T09:21:55;103017.16;;;-7.18;70.58
10167;BME280;62970;53.130;8.244;2022-12-18T09:24:25;103011.97;;;-7.09;70.71
10167;BME280;62970;53.130;8.244;2022-12-18T09:26:54;103020.84;;;-7.04;70.60
10167;BME280;62970;53.130;8.244;2022-12-18T09:29:24;103022.25;;;-6.98;70.53
10167;BME280;62970;53.130;8.244;2022-12-18T09:31:57;103032.13;;;-6.91;70.53
10167;BME280;62970;53.130;8.244;2022-12-18T09:34:26;103027.69;;;-6.83;70.64
10167;BME280;62970;53.130;8.244;2022-12-18T09:36:55;103020.72;;;-6.75;70.77
10167;BME280;62970;53.130;8.244;2022-12-18T09:39:25;103013.72;;;-6.68;70.82
10167;BME280;62970;53.130;8.244;2022-12-18T09:41:57;103026.28;;;-6.59;71.19
10167;BME280;62970;53.130;8.244;2022-12-18T09:44:30;103028.53;;;-6.52;71.15
10167;BME280;62970;53.130;8.244;2022-12-18T09:47:10;103039.19;;;-6.46;71.19
10167;BME280;62970;53.130;8.244;2022-12-18T09:49:45;103031.06;;;-6.42;71.33
10167;BME280;62970;53.130;8.244;2022-12-18T09:52:21;103022.03;;;-6.38;71.10
10167;BME280;62970;53.130;8.244;2022-12-18T09:54:56;103024.06;;;-6.34;70.94
10167;BME280;62970;53.130;8.244;2022-12-18T09:57:30;103015.03;;;-6.31;71.08
10167;BME280;62970;53.130;8.244;2022-12-18T10:00:15;103017.19;;;-6.25;71.45
10167;BME280;62970;53.130;8.244;2022-12-18T10:02:49;103021.88;;;-6.19;70.99
10167;BME280;62970;53.130;8.244;2022-12-18T10:05:29;103028.97;;;-6.15;71.51
10167;BME280;62970;53.130;8.244;2022-12-18T10:08:08;103022.84;;;-6.07;71.46
10167;BME280;62970;53.130;8.244;2022-12-18T10:10:48;103011.50;;;-6.01;71.79
10167;BME280;62970;53.130;8.244;2022-12-18T10:13:24;103015.41;;;-5.94;71.60
10167;BME280;62970;53.130;8.244;2022-12-18T10:16:09;103004.06;;;-5.87;71.52
10167;BME280;62970;53.130;8.244;2022-12-18T10:19:01;102996.03;;;-5.82;71.50
10167;BME280;62970;53.130;8.244;2022-12-18T10:21:39;102984.56;;;-5.77;71.78
10167;BME280;62970;53.130;8.244;2022-12-18T10:24:17;102981.63;;;-5.71;71.57
10167;BME280;62970;53.130;8.244;2022-12-18T10:26:48;102987.94;;;-5.66;71.47
10167;BME280;62970;53.130;8.244;2022-12-18T10:29:18;102976.47;;;-5.61;71.57
10167;BME280;62970;53.130;8.244;2022-12-18T10:31:47;102978.41;;;-5.58;71.46
10167;BME280;62970;53.130;8.244;2022-12-18T10:34:19;102975.31;;;-5.54;71.83
10167;BME280;62970;53.130;8.244;2022-12-18T10:36:48;102975.56;;;-5.51;71.89
10167;BME280;62970;53.130;8.244;2022-12-18T10:39:20;102969.81;;;-5.49;71.89
10167;BME280;62970;53.130;8.244;2022-12-18T10:42:11;102969.41;;;-5.43;72.12
10167;BME280;62970;53.130;8.244;2022-12-18T10:44:42;102969.31;;;-5.33;71.92
10167;BME280;62970;53.130;8.244;2022-12-18T10:47:14;102959.50;;;-5.29;72.14
10167;BME280;62970;53.130;8.244;2022-12-18T10:49:53;102964.38;;;-5.20;72.26
10167;BME280;62970;53.130;8.244;2022-12-18T10:52:25;102964.06;;;-5.13;72.12
10167;BME280;62970;53.130;8.244;2022-12-18T10:54:58;102964.63;;;-5.05;72.23
10167;BME280;62970;53.130;8.244;2022-12-18T10:57:34;102957.56;;;-4.98;72.36
10167;BME280;62970;53.130;8.244;2022-12-18T11:00:27;102947.94;;;-4.90;72.60
10167;BME280;62970;53.130;8.244;2022-12-18T11:02:57;102938.31;;;-4.82;72.30
10167;BME280;62970;53.130;8.244;2022-12-18T11:05:32;102931.81;;;-4.79;72.57
10167;BME280;62970;53.130;8.244;2022-12-18T11:08:03;102936.56;;;-4.72;72.05
10167;BME280;62970;53.130;8.244;2022-12-18T11:10:36;102941.31;;;-4.65;72.46
10167;BME280;62970;53.130;8.244;2022-12-18T11:13:15;102934.13;;;-4.58;72.48
10167;BME280;62970;53.130;8.244;2022-12-18T11:15:46;102928.81;;;-4.50;72.27
10167;BME280;62970;53.130;8.244;2022-12-18T11:18:24;102926.69;;;-4.44;72.27
10167;BME280;62970;53.130;8.244;2022-12-18T11:20:59;102913.72;;;-4.35;72.36
10167;BME280;62970;53.130;8.244;2022-12-18T11:23:29;102918.59;;;-4.26;72.33
10167;BME280;62970;53.130;8.244;2022-12-18T11:26:01;102915.69;;;-4.19;72.59
10167;BME280;62970;53.130;8.244;2022-12-18T11:28:38;102915.53;;;-4.09;72.68
10167;BME280;62970;53.130;8.244;2022-12-18T11:31:24;102914.41;;;-4.01;72.45
10167;BME280;62970;53.130;8.244;2022-12-18T11:34:00;102905.53;;;-3.94;72.78
10167;BME280;62970;53.130;8.244;2022-12-18T11:36:36;102902.53;;;-3.89;72.71
10167;BME280;62970;53.130;8.244;2022-12-18T11:39:17;102896.84;;;-3.85;72.42
10167;BME280;62970;53.130;8.244;2022-12-18T11:41:53;102890.41;;;-3.80;72.53
10167;BME280;62970;53.130;8.244;2022-12-18T11:44:47;102878.94;;;-3.73;72.77
10167;BME280;62970;53.130;8.244;2022-12-18T11:47:26;102878.69;;;-3.65;72.94
10167;BME280;62970;53.130;8.244;2022-12-18T11:50:02;102866.34;;;-3.58;73.01
10167;BME280;62970;53.130;8.244;2022-12-18T11:52:38;102864.19;;;-3.52;72.65
10167;BME280;62970;53.130;8.244;2022-12-18T11:55:13;102866.16;;;-3.48;72.64
10167;BME280;62970;53.130;8.244;2022-12-18T11:57:51;102867.16;;;-3.46;72.71
10167;BME280;62970;53.130;8.244;2022-12-18T12:00:25;102859.59;;;-3.45;72.17
10167;BME280;62970;53.130;8.244;2022-12-18T12:03:34;102855.28;;;-3.46;72.42
10167;BME280;62970;53.130;8.244;2022-12-18T12:06:15;102852.84;;;-3.44;72.15
10167;BME280;62970;53.130;8.244;2022-12-18T12:09:02;102848.53;;;-3.45;72.58
10167;BME280;62970;53.130;8.244;2022-12-18T12:11:43;102844.19;;;-3.46;71.97
10167;BME280;62970;53.130;8.244;2022-12-18T12:14:39;102833.09;;;-3.47;72.14
10167;BME280;62970;53.130;8.244;2022-12-18T12:17:18;102838.22;;;-3.47;72.17
10167;BME280;62970;53.130;8.244;2022-12-18T12:20:00;102843.22;;;-3.48;71.92
10167;BME280;62970;53.130;8.244;2022-12-18T12:22:39;102843.22;;;-3.48;72.31
10167;BME280;62970;53.130;8.244;2022-12-18T12:25:29;102842.31;;;-3.49;72.48
10167;BME280;62970;53.130;8.244;2022-12-18T12:28:13;102826.13;;;-3.49;72.11
10167;BME280;62970;53.130;8.244;2022-12-18T12:30:56;102818.38;;;-3.51;72.15
10167;BME280;62970;53.130;8.244;2022-12-18T12:33:37;102827.69;;;-3.51;71.97
10167;BME280;62970;53.130;8.244;2022-12-18T12:36:17;102826.72;;;-3.53;72.09
10167;BME280;62970;53.130;8.244;2022-12-18T12:38:54;102822.41;;;-3.54;72.23
10167;BME280;62970;53.130;8.244;2022-12-18T12:41:32;102811.41;;;-3.53;72.36
10167;BME280;62970;53.130;8.244;2022-12-18T12:44:19;102807.97;;;-3.54;72.04
10167;BME280;62970;53.130;8.244;2022-12-18T12:46:54;102806.41;;;-3.52;72.27
10167;BME280;62970;53.130;8.244;2022-12-18T12:49:29;102796.31;;;-3.50;72.28
10167;BME280;62970;53.130;8.244;2022-12-18T12:52:05;102790.53;;;-3.48;72.15
10167;BME280;62970;53.130;8.244;2022-12-18T12:54:37;102791.59;;;-3.44;72.29
10167;BME280;62970;53.130;8.244;2022-12-18T12:57:15;102787.38;;;-3.44;72.14
10167;BME280;62970;53.130;8.244;2022-12-18T12:59:58;102791.03;;;-3.40;72.25
10167;BME280;62970;53.130;8.244;2022-12-18T13:02:33;102790.25;;;-3.39;72.70
10167;BME280;62970;53.130;8.244;2022-12-18T13:05:16;102788.56;;;-3.39;72.31
10167;BME280;62970;53.130;8.244;2022-12-18T13:07:52;102780.22;;;-3.36;72.56
10167;BME280;62970;53.130;8.244;2022-12-18T13:10:31;102773.47;;;-3.36;72.27
10167;BME280;62970;53.130;8.244;2022-12-18T13:13:06;102757.38;;;-3.35;72.43
10167;BME280;62970;53.130;8.244;2022-12-18T13:15:39;102754.03;;;-3.34;72.58
10167;BME280;62970;53.130;8.244;2022-12-18T13:18:17;102753.25;;;-3.33;72.45
10167;BME280;62970;53.130;8.244;2022-12-18T13:20:50;102751.56;;;-3.32;72.09
10167;BME280;62970;53.130;8.244;2022-12-18T13:23:33;102745.59;;;-3.33;72.33
10167;BME280;62970;53.130;8.244;2022-12-18T13:26:32;102739.59;;;-3.33;72.03
10167;BME280;62970;53.130;8.244;2022-12-18T13:29:04;102745.50;;;-3.34;72.24
10167;BME280;62970;53.130;8.244;2022-12-18T13:32:18;102749.72;;;-3.35;72.04
10167;BME280;62970;53.130;8.244;2022-12-18T13:34:47;102741.16;;;-3.35;72.14
10167;BME280;62970;53.130;8.244;2022-12-18T13:37:43;102735.19;;;-3.36;71.94
10167;BME280;62970;53.130;8.244;2022-12-18T13:40:58;102733.31;;;-3.38;72.23
10167;BME280;62970;53.130;8.244;2022-12-18T13:43:33;102723.91;;;-3.39;72.03
10167;BME280;62970;53.130;8.244;2022-12-18T13:46:25;102720.28;;;-3.43;71.87
10167;BME280;62970;53.130;8.244;2022-12-18T13:49:03;102720.97;;;-3.45;71.97
10167;BME280;62970;53.130;8.244;2022-12-18T13:51:34;102721.75;;;-3.46;71.98
10167;BME280;62970;53.130;8.244;2022-12-18T13:54:18;102723.31;;;-3.48;72.04